Red Oak, Oklahoma
Current Conditions -  °F | °C
As of 3:15 AM on Sunday 26 Oct 2014 (Local Time) from KGZL Reporting Station
Clear Clear  
Wind Chill: 61°   Ceiling: Unl
Heat Index: 61°   Visibility: 10mi
Dew Point: 59°   Wind: 5mph
Humidity: 94%   Direction: 140°SE
Pressure: 29.99"   Gusts: NA
Location:  34.95°N, 95.08°W
Report Text: KGZL 260815Z AUTO 14004KT 10SM CLR 16/15 A2999 RMK AO2
Loading
Personal Weather Stations






























Interactive Weather Map
Tropical Storm Tracking
New forecast layout! Learn more

10-Day Weather Forecast

Advertisements
Track Severe Weather on mobile